createdAt,value
2019-04-23T00:02:45.854Z,2.80
2019-04-23T00:04:55.011Z,2.90
2019-04-23T00:07:49.822Z,2.90
2019-04-23T00:10:09.590Z,2.80
2019-04-23T00:12:44.123Z,2.80
2019-04-23T00:17:38.545Z,2.70
2019-04-23T00:20:06.467Z,2.50
2019-04-23T00:22:36.566Z,2.60
2019-04-23T00:25:41.551Z,2.50
2019-04-23T00:30:18.753Z,2.60
2019-04-23T00:32:48.074Z,2.60
2019-04-23T00:35:12.886Z,2.60
2019-04-23T00:37:44.402Z,2.60
2019-04-23T00:40:20.368Z,2.60
2019-04-23T00:42:47.940Z,2.60
2019-04-23T00:45:16.612Z,2.60
2019-04-23T00:47:49.658Z,2.60
2019-04-23T00:50:22.879Z,2.50
2019-04-23T00:52:45.855Z,2.40
2019-04-23T00:55:35.604Z,2.40
2019-04-23T00:57:48.466Z,2.30
2019-04-23T01:00:28.167Z,2.30
2019-04-23T01:02:54.670Z,2.20
2019-04-23T01:05:24.810Z,2.10
2019-04-23T01:07:50.014Z,2.10
2019-04-23T01:10:53.980Z,2.10
2019-04-23T01:13:22.920Z,2.00
2019-04-23T01:15:53.674Z,2.00
2019-04-23T01:20:53.753Z,2.00
2019-04-23T01:23:41.835Z,1.90
2019-04-23T01:26:26.432Z,1.80
2019-04-23T01:29:03.027Z,1.90
2019-04-23T01:31:48.014Z,2.00
2019-04-23T01:33:55.462Z,2.00
2019-04-23T01:39:05.053Z,1.90
2019-04-23T01:41:33.963Z,1.80
2019-04-23T01:43:58.240Z,1.80
2019-04-23T01:46:35.763Z,1.80
2019-04-23T01:49:07.859Z,1.80
2019-04-23T01:51:39.871Z,1.70
2019-04-23T01:54:04.569Z,1.80
2019-04-23T01:56:33.441Z,1.80
2019-04-23T01:59:07.874Z,1.80
2019-04-23T02:01:43.323Z,1.60
2019-04-23T02:04:11.298Z,1.70
2019-04-23T02:06:40.611Z,1.60
2019-04-23T02:09:10.015Z,1.60
2019-04-23T02:11:37.678Z,1.60
2019-04-23T02:14:09.589Z,1.60
2019-04-23T02:16:39.136Z,1.50
2019-04-23T02:19:12.937Z,1.60
2019-04-23T02:21:55.046Z,1.60
2019-04-23T02:24:17.716Z,1.30
2019-04-23T02:26:48.702Z,1.30
2019-04-23T02:32:01.528Z,1.40
2019-04-23T02:39:29.169Z,1.20
2019-04-23T02:42:07.335Z,1.10
2019-04-23T02:44:24.088Z,1.00
2019-04-23T02:49:35.791Z,1.40
2019-04-23T02:51:58.877Z,1.40
2019-04-23T02:57:01.304Z,1.50
2019-04-23T03:07:22.338Z,1.30
2019-04-23T03:14:55.773Z,1.30
2019-04-23T03:17:25.960Z,1.30
2019-04-23T03:22:56.016Z,1.10
2019-04-23T03:25:33.897Z,1.10
2019-04-23T03:27:50.984Z,1.20
2019-04-23T03:30:49.448Z,1.10
2019-04-23T03:35:09.291Z,1.10
2019-04-23T03:37:58.161Z,1.10
2019-04-23T03:40:21.114Z,1.10
2019-04-23T03:48:00.820Z,1.00
2019-04-23T03:50:30.038Z,0.90
2019-04-23T03:52:55.283Z,0.90
2019-04-23T03:55:37.362Z,0.80
2019-04-23T04:00:37.238Z,0.90
2019-04-23T04:08:06.796Z,0.90
2019-04-23T04:10:41.611Z,0.80
2019-04-23T04:12:56.990Z,0.70
2019-04-23T04:18:28.532Z,0.60
2019-04-23T04:20:39.697Z,0.90
2019-04-23T04:25:33.668Z,1.10
2019-04-23T04:28:17.844Z,1.20
2019-04-23T04:30:40.998Z,1.00
2019-04-23T04:33:16.626Z,1.20
2019-04-23T04:35:47.713Z,1.30
2019-04-23T04:38:22.419Z,1.30
2019-04-23T04:40:55.302Z,1.30
2019-04-23T04:43:13.817Z,1.30
2019-04-23T04:45:49.809Z,1.60
2019-04-23T04:47:59.124Z,1.50
2019-04-23T04:50:46.993Z,1.50
2019-04-23T04:58:15.877Z,1.80
2019-04-23T05:00:54.217Z,1.60
2019-04-23T05:08:19.550Z,1.60
2019-04-23T05:10:55.876Z,1.80
2019-04-23T05:15:53.903Z,2.10
2019-04-23T05:20:54.830Z,2.60
2019-04-23T05:23:28.116Z,2.50
2019-04-23T05:25:51.594Z,2.80
2019-04-23T05:28:24.536Z,3.00
2019-04-23T05:30:52.036Z,3.10
2019-04-23T05:33:23.882Z,3.30
2019-04-23T05:40:53.642Z,3.40
2019-04-23T05:43:27.840Z,3.50
2019-04-23T05:46:17.511Z,3.70
2019-04-23T05:48:31.123Z,3.70
2019-04-23T05:50:58.819Z,3.90
2019-04-23T05:53:27.257Z,4.00
2019-04-23T05:55:55.477Z,4.20
2019-04-23T05:58:28.873Z,4.40
2019-04-23T06:01:08.330Z,4.60
2019-04-23T06:03:30.072Z,4.60
2019-04-23T06:06:08.165Z,4.90
2019-04-23T06:08:32.138Z,5.00
2019-04-23T06:11:02.006Z,5.30
2019-04-23T06:13:36.207Z,6.10
2019-04-23T06:15:58.020Z,7.70
2019-04-23T06:18:38.938Z,9.10
2019-04-23T06:21:03.066Z,9.30
2019-04-23T06:23:38.581Z,10.10
2019-04-23T06:28:36.405Z,10.30
2019-04-23T06:31:06.322Z,11.50
2019-04-23T06:33:33.686Z,10.50
2019-04-23T06:36:10.643Z,11.70
2019-04-23T06:38:53.392Z,13.20
2019-04-23T06:41:06.838Z,13.80
2019-04-23T06:43:43.735Z,14.40
2019-04-23T06:46:09.990Z,11.90
2019-04-23T06:48:45.467Z,12.20
2019-04-23T06:51:11.203Z,13.90
2019-04-23T06:53:35.874Z,14.90
2019-04-23T06:56:11.317Z,13.50
2019-04-23T06:58:42.919Z,14.00
2019-04-23T07:03:45.150Z,15.10
2019-04-23T07:06:24.607Z,15.40
2019-04-23T07:11:29.075Z,16.30
2019-04-23T07:13:54.580Z,17.00
2019-04-23T07:16:14.640Z,18.10
2019-04-23T07:18:50.373Z,17.70
2019-04-23T07:21:22.042Z,17.80
2019-04-23T07:24:00.383Z,18.20
2019-04-23T07:26:29.690Z,17.50
2019-04-23T07:28:54.638Z,17.50
2019-04-23T07:31:28.437Z,17.80
2019-04-23T07:36:32.688Z,18.20
2019-04-23T07:39:01.524Z,16.90
2019-04-23T07:41:43.392Z,17.80
2019-04-23T07:44:08.589Z,18.00
2019-04-23T07:46:45.075Z,18.10
2019-04-23T07:49:10.355Z,18.40
2019-04-23T07:51:46.880Z,18.10
2019-04-23T07:54:16.325Z,18.20
2019-04-23T07:56:41.930Z,18.00
2019-04-23T07:59:14.186Z,18.20
2019-04-23T08:01:47.112Z,17.70
2019-04-23T08:04:10.651Z,18.20
2019-04-23T08:06:37.590Z,18.50
2019-04-23T08:09:10.931Z,18.10
2019-04-23T08:11:42.586Z,18.50
2019-04-23T08:14:08.623Z,18.90
2019-04-23T08:16:46.985Z,19.40
2019-04-23T08:19:14.240Z,18.30
2019-04-23T08:21:43.830Z,18.20
2019-04-23T08:24:10.435Z,18.50
2019-04-23T08:29:28.008Z,18.40
2019-04-23T08:32:06.902Z,18.20
2019-04-23T08:34:40.087Z,19.00
2019-04-23T08:37:04.575Z,19.80
2019-04-23T08:39:38.608Z,20.50
2019-04-23T08:42:28.743Z,21.00
2019-04-23T08:45:05.542Z,20.70
2019-04-23T08:54:56.813Z,19.30
2019-04-23T08:57:14.506Z,20.30
2019-04-23T09:03:02.748Z,19.10
2019-04-23T09:07:22.400Z,19.90
2019-04-23T09:09:51.060Z,19.80
2019-04-23T09:12:23.706Z,20.70
2019-04-23T09:14:54.348Z,20.50
2019-04-23T09:17:19.707Z,20.70
2019-04-23T09:20:07.112Z,20.20
2019-04-23T09:22:34.679Z,21.00
2019-04-23T09:25:01.279Z,20.60
2019-04-23T09:30:07.076Z,18.80
2019-04-23T09:35:08.459Z,19.40
2019-04-23T09:37:37.151Z,19.50
2019-04-23T09:40:09.059Z,19.30
2019-04-23T09:45:22.486Z,19.40
2019-04-23T09:53:12.980Z,19.90
2019-04-23T09:55:35.629Z,21.00
2019-04-23T09:58:03.142Z,20.80
2019-04-23T10:00:42.087Z,20.80
2019-04-23T10:02:53.472Z,20.70
2019-04-23T10:05:26.511Z,20.30
2019-04-23T10:07:53.355Z,20.90
2019-04-23T10:10:14.285Z,20.50
2019-04-23T10:12:44.064Z,21.10
2019-04-23T10:15:22.765Z,21.60
2019-04-23T10:17:46.302Z,22.00
2019-04-23T10:20:16.383Z,21.30
2019-04-23T10:22:46.283Z,21.10
2019-04-23T10:25:17.061Z,21.00
2019-04-23T10:27:53.152Z,21.30
2019-04-23T10:30:17.525Z,21.30
2019-04-23T10:32:47.569Z,21.50
2019-04-23T10:35:25.631Z,22.20
2019-04-23T10:37:55.971Z,21.50
2019-04-23T10:40:25.475Z,22.10
2019-04-23T10:42:50.153Z,21.10
2019-04-23T10:45:39.638Z,20.60
2019-04-23T10:48:33.057Z,20.90
2019-04-23T10:51:22.745Z,21.70
2019-04-23T10:53:31.351Z,22.30
2019-04-23T10:56:02.586Z,22.50
2019-04-23T10:58:31.506Z,21.90
2019-04-23T11:01:06.326Z,21.80
2019-04-23T11:03:48.987Z,22.10
2019-04-23T11:06:06.695Z,21.70
2019-04-23T11:08:38.719Z,22.40
2019-04-23T11:11:12.354Z,22.80
2019-04-23T11:13:38.271Z,22.80
2019-04-23T11:16:44.835Z,22.50
2019-04-23T11:18:53.627Z,22.50
2019-04-23T11:21:13.695Z,23.00
2019-04-23T11:23:43.068Z,22.40
2019-04-23T11:26:19.918Z,22.20
2019-04-23T11:28:38.346Z,22.30
2019-04-23T11:31:25.600Z,22.80
2019-04-23T11:33:54.372Z,23.20
2019-04-23T11:36:41.087Z,24.10
2019-04-23T11:41:27.530Z,23.10
2019-04-23T11:43:46.513Z,22.20
2019-04-23T11:49:22.551Z,23.20
2019-04-23T11:51:07.544Z,22.90
2019-04-23T11:53:51.049Z,22.00
2019-04-23T11:56:48.725Z,22.40
2019-04-23T11:58:44.572Z,22.10
2019-04-23T12:04:05.673Z,23.40
2019-04-23T12:06:41.684Z,23.80
2019-04-23T12:09:18.622Z,22.80
2019-04-23T12:17:20.874Z,22.90
2019-04-23T12:19:57.648Z,22.30
2019-04-23T12:27:26.123Z,23.40
2019-04-23T12:29:46.275Z,22.90
2019-04-23T12:37:34.550Z,24.30
2019-04-23T12:40:05.913Z,24.10
2019-04-23T12:42:55.566Z,24.50
2019-04-23T12:55:23.160Z,22.90
2019-04-23T13:00:07.148Z,22.80
2019-04-23T13:02:52.416Z,23.00
2019-04-23T13:05:11.898Z,21.50
2019-04-23T13:07:43.259Z,22.00
2019-04-23T13:10:09.158Z,23.30
2019-04-23T13:15:11.544Z,24.70
2019-04-23T13:17:50.592Z,24.60
2019-04-23T13:22:53.523Z,23.30
2019-04-23T13:25:19.643Z,23.90
2019-04-23T13:30:31.590Z,24.10
2019-04-23T13:32:59.025Z,24.20
2019-04-23T13:35:38.399Z,24.50
2019-04-23T13:40:32.121Z,22.70
2019-04-23T13:43:06.957Z,23.40
2019-04-23T13:45:51.131Z,22.70
2019-04-23T13:48:00.676Z,22.90
2019-04-23T13:50:34.592Z,24.00
2019-04-23T13:55:22.822Z,23.70
2019-04-23T14:00:39.036Z,23.50
2019-04-23T14:02:57.379Z,24.30
2019-04-23T14:08:05.304Z,22.30
2019-04-23T14:10:35.435Z,21.50
2019-04-23T14:13:20.674Z,20.70
2019-04-23T14:15:42.794Z,21.00
2019-04-23T14:18:29.198Z,21.80
2019-04-23T14:20:31.583Z,23.00
2019-04-23T14:23:17.411Z,23.10
2019-04-23T14:25:45.481Z,23.10
2019-04-23T14:33:23.271Z,24.10
2019-04-23T14:35:42.619Z,24.00
2019-04-23T14:40:43.429Z,22.80
2019-04-23T14:43:14.935Z,21.60
2019-04-23T14:46:23.454Z,21.20
2019-04-23T14:48:23.347Z,21.10
2019-04-23T14:51:11.180Z,21.10
2019-04-23T14:56:11.254Z,21.20
2019-04-23T14:58:42.489Z,21.50
2019-04-23T15:06:33.189Z,22.90
2019-04-23T15:11:20.902Z,24.30
2019-04-23T15:13:44.801Z,24.50
2019-04-23T15:16:20.839Z,24.20
2019-04-23T15:18:58.085Z,22.70
2019-04-23T15:24:00.248Z,22.00
2019-04-23T15:28:30.302Z,21.40
2019-04-23T15:34:02.228Z,21.60
2019-04-23T15:36:32.679Z,21.30
2019-04-23T15:39:08.819Z,20.60
2019-04-23T15:46:33.002Z,21.80
2019-04-23T15:51:47.901Z,21.60
2019-04-23T15:54:00.868Z,21.80
2019-04-23T15:56:35.879Z,21.50
2019-04-23T16:01:29.057Z,21.00
2019-04-23T16:03:31.470Z,20.90
2019-04-23T16:06:00.053Z,20.70
2019-04-23T16:09:04.861Z,19.90
2019-04-23T16:14:17.779Z,20.50
2019-04-23T16:19:07.234Z,21.10
2019-04-23T16:21:48.347Z,20.30
2019-04-23T16:24:11.031Z,20.00
2019-04-23T16:26:39.164Z,20.10
2019-04-23T16:29:27.483Z,20.00
2019-04-23T16:31:39.926Z,19.80
2019-04-23T16:34:14.133Z,19.40
2019-04-23T16:36:41.556Z,19.50
2019-04-23T16:39:07.369Z,19.50
2019-04-23T16:41:42.308Z,19.20
2019-04-23T16:44:16.895Z,18.90
2019-04-23T16:46:42.092Z,18.70
2019-04-23T16:49:15.234Z,18.40
2019-04-23T16:51:32.561Z,18.30
2019-04-23T16:54:32.630Z,18.20
2019-04-23T16:56:55.355Z,18.10
2019-04-23T16:59:15.400Z,18.00
2019-04-23T17:01:44.282Z,17.90
2019-04-23T17:04:18.148Z,17.90
2019-04-23T17:06:44.318Z,17.90
2019-04-23T17:09:15.732Z,17.80
2019-04-23T17:11:42.566Z,17.70
2019-04-23T17:14:21.584Z,17.70
2019-04-23T17:19:19.264Z,17.50
2019-04-23T17:21:44.439Z,17.40
2019-04-23T17:26:52.725Z,17.30
2019-04-23T17:29:21.706Z,17.30
2019-04-23T17:31:59.065Z,17.10
2019-04-23T17:37:03.239Z,17.10
2019-04-23T17:39:41.385Z,17.00
2019-04-23T17:45:02.012Z,16.80
2019-04-23T17:47:31.288Z,16.80
2019-04-23T17:52:33.548Z,16.70
2019-04-23T17:55:07.650Z,16.60
2019-04-23T17:57:32.495Z,16.60
2019-04-23T18:00:21.977Z,16.50
2019-04-23T18:02:53.328Z,16.50
2019-04-23T18:05:06.504Z,16.50
2019-04-23T18:10:24.764Z,16.20
2019-04-23T18:15:03.460Z,16.10
2019-04-23T18:17:52.571Z,15.90
2019-04-23T18:20:13.406Z,15.80
2019-04-23T18:22:47.244Z,15.70
2019-04-23T18:25:16.512Z,15.70
2019-04-23T18:27:50.819Z,15.70
2019-04-23T18:35:25.909Z,15.60
2019-04-23T18:38:00.540Z,15.60
2019-04-23T18:40:28.592Z,15.60
2019-04-23T18:43:21.121Z,15.40
2019-04-23T18:45:45.406Z,15.20
2019-04-23T18:48:04.469Z,15.10
2019-04-23T18:50:44.576Z,14.90
2019-04-23T18:53:02.845Z,14.80
2019-04-23T18:55:48.776Z,14.60
2019-04-23T18:58:04.129Z,14.50
2019-04-23T19:00:53.272Z,14.50
2019-04-23T19:03:19.761Z,14.60
2019-04-23T19:06:13.270Z,14.80
2019-04-23T19:08:54.932Z,14.80
2019-04-23T19:11:14.474Z,14.80
2019-04-23T19:13:41.087Z,14.80
2019-04-23T19:16:07.207Z,14.70
2019-04-23T19:18:40.506Z,14.70
2019-04-23T19:26:15.779Z,14.60
2019-04-23T19:28:52.486Z,14.70
2019-04-23T19:31:33.263Z,14.70
2019-04-23T19:39:11.954Z,14.60
2019-04-23T19:41:49.602Z,14.60
2019-04-23T19:44:08.677Z,14.70
2019-04-23T19:49:05.676Z,14.50
2019-04-23T19:51:42.207Z,14.50
2019-04-23T19:54:17.157Z,14.60
2019-04-23T19:59:15.367Z,14.50
2019-04-23T20:01:46.916Z,14.40
2019-04-23T20:04:04.203Z,14.10
2019-04-23T20:09:29.493Z,14.10
2019-04-23T20:14:22.021Z,14.20
2019-04-23T20:19:18.256Z,14.10
2019-04-23T20:21:51.075Z,14.10
2019-04-23T20:26:50.780Z,14.10
2019-04-23T20:34:51.859Z,14.00
2019-04-23T20:37:06.527Z,13.90
2019-04-23T20:39:45.541Z,14.00
2019-04-23T20:42:12.319Z,14.00
2019-04-23T20:47:13.314Z,14.00
2019-04-23T20:49:48.534Z,14.00
2019-04-23T20:52:10.318Z,14.10
2019-04-23T20:54:56.880Z,14.00
2019-04-23T21:00:01.618Z,13.90
2019-04-23T21:02:52.438Z,14.00
2019-04-23T21:05:10.065Z,13.90
2019-04-23T21:10:18.105Z,13.90
2019-04-23T21:15:12.167Z,13.90
2019-04-23T21:17:58.212Z,13.90
2019-04-23T21:20:14.664Z,13.80
2019-04-23T21:22:41.133Z,13.80
2019-04-23T21:25:09.740Z,13.80
2019-04-23T21:28:06.338Z,13.80
2019-04-23T21:30:08.571Z,13.80
2019-04-23T21:32:52.672Z,13.70
2019-04-23T21:37:58.888Z,13.50
2019-04-23T21:40:56.315Z,13.60
2019-04-23T21:45:48.631Z,13.50
2019-04-23T21:48:08.365Z,13.50
2019-04-23T21:50:58.106Z,13.60
2019-04-23T21:53:10.097Z,13.40
2019-04-23T21:55:48.450Z,13.50
2019-04-23T21:58:20.034Z,13.50
2019-04-23T22:00:53.583Z,13.10
2019-04-23T22:03:17.931Z,13.10
2019-04-23T22:05:51.265Z,13.20
2019-04-23T22:08:06.869Z,12.70
2019-04-23T22:11:00.453Z,12.60
2019-04-23T22:13:19.926Z,12.70
2019-04-23T22:18:12.699Z,12.60
2019-04-23T22:20:55.892Z,12.60
2019-04-23T22:23:19.555Z,12.70
2019-04-23T22:26:07.828Z,12.60
2019-04-23T22:28:16.368Z,12.60
2019-04-23T22:33:19.589Z,12.50
2019-04-23T22:35:55.585Z,12.50
2019-04-23T22:38:20.414Z,12.70
2019-04-23T22:40:58.174Z,12.70
2019-04-23T22:43:20.837Z,12.40
2019-04-23T22:46:11.729Z,12.20
2019-04-23T22:48:23.583Z,12.30
2019-04-23T22:51:04.889Z,12.30
2019-04-23T22:53:13.805Z,12.60
2019-04-23T22:56:01.635Z,12.70
2019-04-23T22:58:20.020Z,12.50
2019-04-23T23:01:10.695Z,12.40
2019-04-23T23:06:10.972Z,12.60
2019-04-23T23:11:02.251Z,12.60
2019-04-23T23:13:48.129Z,12.70
2019-04-23T23:16:10.607Z,12.60
2019-04-23T23:21:07.993Z,12.20
2019-04-23T23:23:30.078Z,12.00
2019-04-23T23:28:35.260Z,12.10
2019-04-23T23:31:06.984Z,11.90
2019-04-23T23:33:42.910Z,11.90
2019-04-23T23:36:23.276Z,12.10
2019-04-23T23:39:02.773Z,12.10
2019-04-23T23:41:26.419Z,11.90
2019-04-23T23:44:18.082Z,12.00
2019-04-23T23:48:57.089Z,11.80
2019-04-23T23:51:29.467Z,11.90
2019-04-23T23:54:02.287Z,11.70
2019-04-23T23:56:19.500Z,11.90
2019-04-23T23:59:03.794Z,11.90
